sensor_id;sensor_type;location;lat;lon;timestamp;pressure;altitude;pressure_sealevel;temperature;humidity
9474;BME280;8865;47.636;7.692;2023-01-26T00:03:41;98779.38;;;3.03;100.00
9474;BME280;8865;47.636;7.692;2023-01-26T00:06:09;98784.56;;;3.03;100.00
9474;BME280;8865;47.636;7.692;2023-01-26T00:08:40;98779.53;;;3.00;100.00
9474;BME280;8865;47.636;7.692;2023-01-26T00:11:08;98768.78;;;2.91;100.00
9474;BME280;8865;47.636;7.692;2023-01-26T00:13:35;98768.78;;;2.91;100.00
9474;BME280;8865;47.636;7.692;2023-01-26T00:16:02;98755.69;;;2.94;100.00
9474;BME280;8865;47.636;7.692;2023-01-26T00:18:29;98758.72;;;2.84;100.00
9474;BME280;8865;47.636;7.692;2023-01-26T00:21:00;98758.44;;;2.91;100.00
9474;BME280;8865;47.636;7.692;2023-01-26T00:23:28;98757.34;;;2.95;100.00
9474;BME280;8865;47.636;7.692;2023-01-26T00:25:54;98751.50;;;2.91;100.00
9474;BME280;8865;47.636;7.692;2023-01-26T00:28:20;98751.63;;;2.88;100.00
9474;BME280;8865;47.636;7.692;2023-01-26T00:30:47;98748.22;;;2.88;100.00
9474;BME280;8865;47.636;7.692;2023-01-26T00:33:13;98742.03;;;2.90;100.00
9474;BME280;8865;47.636;7.692;2023-01-26T00:35:39;98735.34;;;2.86;100.00
9474;BME280;8865;47.636;7.692;2023-01-26T00:38:10;98733.28;;;2.75;100.00
9474;BME280;8865;47.636;7.692;2023-01-26T00:40:38;98741.16;;;2.72;100.00
9474;BME280;8865;47.636;7.692;2023-01-26T00:43:04;98741.16;;;2.72;100.00
9474;BME280;8865;47.636;7.692;2023-01-26T00:45:30;98740.09;;;2.76;100.00
9474;BME280;8865;47.636;7.692;2023-01-26T00:47:57;98734.78;;;2.79;100.00
9474;BME280;8865;47.636;7.692;2023-01-26T00:50:25;98725.50;;;2.75;100.00
9474;BME280;8865;47.636;7.692;2023-01-26T00:52:51;98729.91;;;2.73;100.00
9474;BME280;8865;47.636;7.692;2023-01-26T00:55:19;98722.84;;;2.77;100.00
9474;BME280;8865;47.636;7.692;2023-01-26T00:57:45;98730.69;;;2.75;100.00
9474;BME280;8865;47.636;7.692;2023-01-26T01:00:11;98727.25;;;2.75;100.00
9474;BME280;8865;47.636;7.692;2023-01-26T01:02:44;98723.00;;;2.74;100.00
9474;BME280;8865;47.636;7.692;2023-01-26T01:05:10;98718.25;;;2.64;100.00
9474;BME280;8865;47.636;7.692;2023-01-26T01:07:36;98712.44;;;2.59;100.00
9474;BME280;8865;47.636;7.692;2023-01-26T01:10:02;98710.72;;;2.60;100.00
9474;BME280;8865;47.636;7.692;2023-01-26T01:12:28;98711.59;;;2.59;100.00
9474;BME280;8865;47.636;7.692;2023-01-26T01:14:54;98708.06;;;2.61;100.00
9474;BME280;8865;47.636;7.692;2023-01-26T01:17:20;98705.59;;;2.58;100.00
9474;BME280;8865;47.636;7.692;2023-01-26T01:19:46;98702.88;;;2.61;100.00
9474;BME280;8865;47.636;7.692;2023-01-26T01:22:12;98708.06;;;2.61;100.00
9474;BME280;8865;47.636;7.692;2023-01-26T01:24:38;98706.97;;;2.65;100.00
9474;BME280;8865;47.636;7.692;2023-01-26T01:27:04;98705.03;;;2.71;100.00
9474;BME280;8865;47.636;7.692;2023-01-26T01:29:30;98706.84;;;2.68;100.00
9474;BME280;8865;47.636;7.692;2023-01-26T01:31:57;98698.19;;;2.70;100.00
9474;BME280;8865;47.636;7.692;2023-01-26T01:34:23;98692.31;;;2.66;100.00
9474;BME280;8865;47.636;7.692;2023-01-26T01:36:49;98693.97;;;2.67;100.00
9474;BME280;8865;47.636;7.692;2023-01-26T01:39:15;98688.94;;;2.64;100.00
9474;BME280;8865;47.636;7.692;2023-01-26T01:41:41;98696.16;;;2.57;100.00
9474;BME280;8865;47.636;7.692;2023-01-26T01:44:25;98692.47;;;2.63;100.00
9474;BME280;8865;47.636;7.692;2023-01-26T01:46:54;98695.81;;;2.65;100.00
9474;BME280;8865;47.636;7.692;2023-01-26T01:49:26;98694.03;;;2.65;100.00
9474;BME280;8865;47.636;7.692;2023-01-26T01:51:54;98688.81;;;2.67;100.00
9474;BME280;8865;47.636;7.692;2023-01-26T01:54:28;98685.75;;;2.59;100.00
9474;BME280;8865;47.636;7.692;2023-01-26T01:56:59;98678.41;;;2.49;100.00
9474;BME280;8865;47.636;7.692;2023-01-26T01:59:29;98679.97;;;2.54;100.00
9474;BME280;8865;47.636;7.692;2023-01-26T02:01:56;98683.22;;;2.57;100.00
9474;BME280;8865;47.636;7.692;2023-01-26T02:04:23;98673.03;;;2.54;100.00
9474;BME280;8865;47.636;7.692;2023-01-26T02:06:51;98680.56;;;2.59;100.00
9474;BME280;8865;47.636;7.692;2023-01-26T02:09:22;98677.84;;;2.62;100.00
9474;BME280;8865;47.636;7.692;2023-01-26T02:12:10;98682.25;;;2.60;100.00
9474;BME280;8865;47.636;7.692;2023-01-26T02:14:37;98686.66;;;2.58;100.00
9474;BME280;8865;47.636;7.692;2023-01-26T02:17:04;98687.34;;;2.61;100.00
9474;BME280;8865;47.636;7.692;2023-01-26T02:21:59;98681.47;;;2.58;100.00
9474;BME280;8865;47.636;7.692;2023-01-26T02:24:33;98683.16;;;2.59;100.00
9474;BME280;8865;47.636;7.692;2023-01-26T02:27:01;98665.41;;;2.51;100.00
9474;BME280;8865;47.636;7.692;2023-01-26T02:29:27;98665.34;;;2.53;100.00
9474;BME280;8865;47.636;7.692;2023-01-26T02:31:54;98672.88;;;2.57;100.00
9474;BME280;8865;47.636;7.692;2023-01-26T02:34:20;98659.06;;;2.58;100.00
9474;BME280;8865;47.636;7.692;2023-01-26T02:36:56;98665.75;;;2.62;100.00
9474;BME280;8865;47.636;7.692;2023-01-26T02:39:34;98665.81;;;2.61;100.00
9474;BME280;8865;47.636;7.692;2023-01-26T02:42:04;98666.81;;;2.58;100.00
9474;BME280;8865;47.636;7.692;2023-01-26T02:44:49;98660.78;;;2.58;100.00
9474;BME280;8865;47.636;7.692;2023-01-26T02:47:16;98670.44;;;2.54;100.00
9474;BME280;8865;47.636;7.692;2023-01-26T02:49:43;98651.44;;;2.55;100.00
9474;BME280;8865;47.636;7.692;2023-01-26T02:52:15;98649.00;;;2.33;100.00
9474;BME280;8865;47.636;7.692;2023-01-26T02:54:42;98656.34;;;2.42;100.00
9474;BME280;8865;47.636;7.692;2023-01-26T02:57:30;98646.63;;;2.47;100.00
9474;BME280;8865;47.636;7.692;2023-01-26T02:59:58;98636.84;;;2.54;100.00
9474;BME280;8865;47.636;7.692;2023-01-26T03:02:24;98643.34;;;2.44;100.00
9474;BME280;8865;47.636;7.692;2023-01-26T03:04:50;98644.41;;;2.40;100.00
9474;BME280;8865;47.636;7.692;2023-01-26T03:07:16;98638.31;;;2.41;100.00
9474;BME280;8865;47.636;7.692;2023-01-26T03:09:42;98630.78;;;2.36;100.00
9474;BME280;8865;47.636;7.692;2023-01-26T03:12:08;98632.66;;;2.32;100.00
9474;BME280;8865;47.636;7.692;2023-01-26T03:14:34;98627.28;;;2.37;100.00
9474;BME280;8865;47.636;7.692;2023-01-26T03:17:00;98623.16;;;2.33;100.00
9474;BME280;8865;47.636;7.692;2023-01-26T03:19:26;98631.47;;;2.40;100.00
9474;BME280;8865;47.636;7.692;2023-01-26T03:22:11;98632.09;;;2.45;100.00
9474;BME280;8865;47.636;7.692;2023-01-26T03:24:56;98628.47;;;2.49;100.00
9474;BME280;8865;47.636;7.692;2023-01-26T03:27:44;98625.16;;;2.45;100.00
9474;BME280;8865;47.636;7.692;2023-01-26T03:30:12;98619.94;;;2.47;100.00
9474;BME280;8865;47.636;7.692;2023-01-26T03:32:38;98628.53;;;2.47;100.00
9474;BME280;8865;47.636;7.692;2023-01-26T03:35:05;98631.72;;;2.53;100.00
9474;BME280;8865;47.636;7.692;2023-01-26T03:37:31;98627.38;;;2.53;100.00
9474;BME280;8865;47.636;7.692;2023-01-26T03:40:03;98623.22;;;2.50;100.00
9474;BME280;8865;47.636;7.692;2023-01-26T03:42:47;98611.19;;;2.49;100.00
9474;BME280;8865;47.636;7.692;2023-01-26T03:45:32;98619.72;;;2.52;100.00
9474;BME280;8865;47.636;7.692;2023-01-26T03:48:16;98613.47;;;2.38;100.00
9474;BME280;8865;47.636;7.692;2023-01-26T03:51:00;98617.09;;;2.34;100.00
9474;BME280;8865;47.636;7.692;2023-01-26T03:53:45;98615.25;;;2.36;100.00
9474;BME280;8865;47.636;7.692;2023-01-26T03:56:29;98622.94;;;2.38;100.00
9474;BME280;8865;47.636;7.692;2023-01-26T03:59:01;98613.47;;;2.38;100.00
9474;BME280;8865;47.636;7.692;2023-01-26T04:01:35;98615.19;;;2.38;100.00
9474;BME280;8865;47.636;7.692;2023-01-26T04:04:02;98611.78;;;2.37;100.00
9474;BME280;8865;47.636;7.692;2023-01-26T04:06:47;98616.03;;;2.38;100.00
9474;BME280;8865;47.636;7.692;2023-01-26T04:09:33;98619.47;;;2.39;100.00
9474;BME280;8865;47.636;7.692;2023-01-26T04:11:59;98609.03;;;2.40;100.00
9474;BME280;8865;47.636;7.692;2023-01-26T04:14:25;98611.56;;;2.42;100.00
9474;BME280;8865;47.636;7.692;2023-01-26T04:17:10;98604.84;;;2.38;100.00
9474;BME280;8865;47.636;7.692;2023-01-26T04:19:54;98600.47;;;2.40;100.00
9474;BME280;8865;47.636;7.692;2023-01-26T04:22:39;98595.22;;;2.41;100.00
9474;BME280;8865;47.636;7.692;2023-01-26T04:25:16;98596.94;;;2.41;100.00
9474;BME280;8865;47.636;7.692;2023-01-26T04:27:42;98598.78;;;2.39;100.00
9474;BME280;8865;47.636;7.692;2023-01-26T04:30:10;98595.22;;;2.41;100.00
9474;BME280;8865;47.636;7.692;2023-01-26T04:32:37;98579.94;;;2.37;100.00
9474;BME280;8865;47.636;7.692;2023-01-26T04:35:04;98589.97;;;2.43;100.00
9474;BME280;8865;47.636;7.692;2023-01-26T04:37:31;98585.56;;;2.45;100.00
9474;BME280;8865;47.636;7.692;2023-01-26T04:39:57;98578.63;;;2.45;100.00
9474;BME280;8865;47.636;7.692;2023-01-26T04:42:23;98574.31;;;2.46;100.00
9474;BME280;8865;47.636;7.692;2023-01-26T04:44:51;98572.84;;;2.40;100.00
9474;BME280;8865;47.636;7.692;2023-01-26T04:47:18;98570.94;;;2.44;100.00
9474;BME280;8865;47.636;7.692;2023-01-26T04:49:44;98571.03;;;2.42;100.00
9474;BME280;8865;47.636;7.692;2023-01-26T04:52:10;98565.78;;;2.44;100.00
9474;BME280;8865;47.636;7.692;2023-01-26T04:54:36;98563.13;;;2.45;100.00
9474;BME280;8865;47.636;7.692;2023-01-26T04:57:02;98563.06;;;2.47;100.00
9474;BME280;8865;47.636;7.692;2023-01-26T04:59:28;98565.47;;;2.50;100.00
9474;BME280;8865;47.636;7.692;2023-01-26T05:01:55;98569.91;;;2.48;100.00
9474;BME280;8865;47.636;7.692;2023-01-26T05:04:21;98562.38;;;2.43;100.00
9474;BME280;8865;47.636;7.692;2023-01-26T05:06:47;98561.47;;;2.44;100.00
9474;BME280;8865;47.636;7.692;2023-01-26T05:09:13;98564.97;;;2.43;100.00
9474;BME280;8865;47.636;7.692;2023-01-26T05:11:39;98557.19;;;2.43;100.00
9474;BME280;8865;47.636;7.692;2023-01-26T05:14:05;98556.22;;;2.46;100.00
9474;BME280;8865;47.636;7.692;2023-01-26T05:16:31;98562.38;;;2.43;100.00
9474;BME280;8865;47.636;7.692;2023-01-26T05:18:57;98558.63;;;2.31;100.00
9474;BME280;8865;47.636;7.692;2023-01-26T05:21:23;98556.44;;;2.41;100.00
9474;BME280;8865;47.636;7.692;2023-01-26T05:23:50;98555.59;;;2.41;100.00
9474;BME280;8865;47.636;7.692;2023-01-26T05:26:16;98547.91;;;2.39;100.00
9474;BME280;8865;47.636;7.692;2023-01-26T05:28:42;98554.09;;;2.37;100.00
9474;BME280;8865;47.636;7.692;2023-01-26T05:31:08;98553.81;;;2.24;100.00
9474;BME280;8865;47.636;7.692;2023-01-26T05:33:34;98553.75;;;2.25;100.00
9474;BME280;8865;47.636;7.692;2023-01-26T05:36:04;98557.78;;;2.31;100.00
9474;BME280;8865;47.636;7.692;2023-01-26T05:38:30;98561.97;;;2.34;100.00
9474;BME280;8865;47.636;7.692;2023-01-26T05:40:56;98563.56;;;2.36;100.00
9474;BME280;8865;47.636;7.692;2023-01-26T05:43:22;98563.56;;;2.36;100.00
9474;BME280;8865;47.636;7.692;2023-01-26T05:45:48;98559.19;;;2.38;100.00
9474;BME280;8865;47.636;7.692;2023-01-26T05:48:14;98565.41;;;2.34;100.00
9474;BME280;8865;47.636;7.692;2023-01-26T05:50:40;98563.63;;;2.35;100.00
9474;BME280;8865;47.636;7.692;2023-01-26T05:53:06;98572.25;;;2.35;100.00
9474;BME280;8865;47.636;7.692;2023-01-26T05:55:33;98562.06;;;2.32;100.00
9474;BME280;8865;47.636;7.692;2023-01-26T05:57:59;98558.63;;;2.31;100.00
9474;BME280;8865;47.636;7.692;2023-01-26T06:00:25;98564.56;;;2.34;100.00
9474;BME280;8865;47.636;7.692;2023-01-26T06:02:51;98569.75;;;2.34;100.00
9474;BME280;8865;47.636;7.692;2023-01-26T06:05:17;98566.16;;;2.36;100.00
9474;BME280;8865;47.636;7.692;2023-01-26T06:07:43;98558.63;;;2.31;100.00
9474;BME280;8865;47.636;7.692;2023-01-26T06:10:09;98554.66;;;2.24;100.00
9474;BME280;8865;47.636;7.692;2023-01-26T06:12:35;98561.19;;;2.31;100.00
9474;BME280;8865;47.636;7.692;2023-01-26T06:15:04;98558.47;;;2.35;100.00
9474;BME280;8865;47.636;7.692;2023-01-26T06:17:30;98553.38;;;2.33;100.00
9474;BME280;8865;47.636;7.692;2023-01-26T06:19:56;98555.75;;;2.38;100.00
9474;BME280;8865;47.636;7.692;2023-01-26T06:22:23;98553.06;;;2.39;100.00
9474;BME280;8865;47.636;7.692;2023-01-26T06:24:49;98549.81;;;2.36;100.00
9474;BME280;8865;47.636;7.692;2023-01-26T06:27:16;98554.00;;;2.38;100.00
9474;BME280;8865;47.636;7.692;2023-01-26T06:29:44;98557.50;;;2.37;100.00
9474;BME280;8865;47.636;7.692;2023-01-26T06:32:12;98550.63;;;2.36;100.00
9474;BME280;8865;47.636;7.692;2023-01-26T06:34:38;98547.97;;;2.38;100.00
9474;BME280;8865;47.636;7.692;2023-01-26T06:37:04;98547.97;;;2.38;100.00
9474;BME280;8865;47.636;7.692;2023-01-26T06:39:30;98547.09;;;2.39;100.00
9474;BME280;8865;47.636;7.692;2023-01-26T06:41:56;98547.75;;;2.42;100.00
9474;BME280;8865;47.636;7.692;2023-01-26T06:44:22;98538.34;;;2.41;100.00
9474;BME280;8865;47.636;7.692;2023-01-26T06:46:48;98543.59;;;2.40;100.00
9474;BME280;8865;47.636;7.692;2023-01-26T06:49:13;98541.09;;;2.38;100.00
9474;BME280;8865;47.636;7.692;2023-01-26T06:51:45;98539.41;;;2.37;100.00
9474;BME280;8865;47.636;7.692;2023-01-26T06:54:13;98542.81;;;2.38;100.00
9474;BME280;8865;47.636;7.692;2023-01-26T06:56:39;98544.03;;;2.30;100.00
9474;BME280;8865;47.636;7.692;2023-01-26T06:59:05;98545.53;;;2.35;100.00
9474;BME280;8865;47.636;7.692;2023-01-26T07:01:34;98540.59;;;2.30;100.00
9474;BME280;8865;47.636;7.692;2023-01-26T07:04:01;98540.59;;;2.30;100.00
9474;BME280;8865;47.636;7.692;2023-01-26T07:06:27;98534.00;;;2.24;100.00
9474;BME280;8865;47.636;7.692;2023-01-26T07:08:53;98539.78;;;2.29;100.00
9474;BME280;8865;47.636;7.692;2023-01-26T07:11:19;98539.63;;;2.32;100.00
9474;BME280;8865;47.636;7.692;2023-01-26T07:13:45;98534.31;;;2.36;100.00
9474;BME280;8865;47.636;7.692;2023-01-26T07:16:14;98537.66;;;2.38;100.00
9474;BME280;8865;47.636;7.692;2023-01-26T07:18:40;98538.56;;;2.37;100.00
9474;BME280;8865;47.636;7.692;2023-01-26T07:21:09;98541.97;;;2.37;100.00
9474;BME280;8865;47.636;7.692;2023-01-26T07:23:36;98540.22;;;2.38;100.00
9474;BME280;8865;47.636;7.692;2023-01-26T07:26:03;98549.44;;;2.43;100.00
9474;BME280;8865;47.636;7.692;2023-01-26T07:28:29;98544.28;;;2.43;100.00
9474;BME280;8865;47.636;7.692;2023-01-26T07:30:59;98548.53;;;2.44;100.00
9474;BME280;8865;47.636;7.692;2023-01-26T07:33:27;98542.50;;;2.44;100.00
9474;BME280;8865;47.636;7.692;2023-01-26T07:35:54;98542.50;;;2.44;100.00
9474;BME280;8865;47.636;7.692;2023-01-26T07:38:21;98548.53;;;2.44;100.00
9474;BME280;8865;47.636;7.692;2023-01-26T07:40:48;98546.78;;;2.45;100.00
9474;BME280;8865;47.636;7.692;2023-01-26T07:43:15;98547.09;;;2.39;100.00
9474;BME280;8865;47.636;7.692;2023-01-26T07:45:49;98544.41;;;2.40;100.00
9474;BME280;8865;47.636;7.692;2023-01-26T07:48:16;98546.84;;;2.43;100.00
9474;BME280;8865;47.636;7.692;2023-01-26T07:50:44;98544.28;;;2.43;100.00
9474;BME280;8865;47.636;7.692;2023-01-26T07:53:10;98545.19;;;2.42;100.00
9474;BME280;8865;47.636;7.692;2023-01-26T07:55:40;98546.03;;;2.43;100.00
9474;BME280;8865;47.636;7.692;2023-01-26T07:58:09;98547.63;;;2.45;100.00
9474;BME280;8865;47.636;7.692;2023-01-26T08:00:35;98551.81;;;2.48;100.00
9474;BME280;8865;47.636;7.692;2023-01-26T08:03:01;98551.44;;;2.56;100.00
9474;BME280;8865;47.636;7.692;2023-01-26T08:05:27;98561.78;;;2.56;100.00
9474;BME280;8865;47.636;7.692;2023-01-26T08:08:00;98554.69;;;2.59;100.00
9474;BME280;8865;47.636;7.692;2023-01-26T08:10:27;98558.91;;;2.62;100.00
9474;BME280;8865;47.636;7.692;2023-01-26T08:12:59;98559.66;;;2.64;100.00
9474;BME280;8865;47.636;7.692;2023-01-26T08:15:26;98562.06;;;2.67;100.00
9474;BME280;8865;47.636;7.692;2023-01-26T08:17:53;98556.00;;;2.68;100.00
9474;BME280;8865;47.636;7.692;2023-01-26T08:20:19;98560.28;;;2.69;100.00
9474;BME280;8865;47.636;7.692;2023-01-26T08:22:45;98564.38;;;2.73;100.00
9474;BME280;8865;47.636;7.692;2023-01-26T08:25:11;98554.66;;;2.78;100.00
9474;BME280;8865;47.636;7.692;2023-01-26T08:27:37;98560.72;;;2.77;100.00
9474;BME280;8865;47.636;7.692;2023-01-26T08:30:03;98556.22;;;2.81;100.00
9474;BME280;8865;47.636;7.692;2023-01-26T08:32:29;98561.56;;;2.78;100.00
9474;BME280;8865;47.636;7.692;2023-01-26T08:34:55;98560.88;;;2.74;100.00
9474;BME280;8865;47.636;7.692;2023-01-26T08:37:21;98563.31;;;2.77;100.00
9474;BME280;8865;47.636;7.692;2023-01-26T08:39:47;98559.66;;;2.81;100.00
9474;BME280;8865;47.636;7.692;2023-01-26T08:42:13;98559.59;;;2.83;100.00
9474;BME280;8865;47.636;7.692;2023-01-26T08:44:39;98559.91;;;2.77;100.00
9474;BME280;8865;47.636;7.692;2023-01-26T08:47:05;98555.56;;;2.77;100.00
9474;BME280;8865;47.636;7.692;2023-01-26T08:49:31;98556.53;;;2.75;100.00
9474;BME280;8865;47.636;7.692;2023-01-26T08:51:57;98555.47;;;2.79;100.00
9474;BME280;8865;47.636;7.692;2023-01-26T08:54:23;98555.09;;;2.86;100.00
9474;BME280;8865;47.636;7.692;2023-01-26T08:56:49;98553.97;;;2.92;100.00
9474;BME280;8865;47.636;7.692;2023-01-26T08:59:15;98564.97;;;2.96;100.00
9474;BME280;8865;47.636;7.692;2023-01-26T09:01:41;98566.66;;;2.97;100.00
9474;BME280;8865;47.636;7.692;2023-01-26T09:04:07;98567.56;;;2.96;100.00
9474;BME280;8865;47.636;7.692;2023-01-26T09:06:33;98562.56;;;2.93;100.00
9474;BME280;8865;47.636;7.692;2023-01-26T09:08:59;98564.22;;;2.94;100.00
9474;BME280;8865;47.636;7.692;2023-01-26T09:11:25;98558.81;;;2.81;100.00
9474;BME280;8865;47.636;7.692;2023-01-26T09:13:51;98553.81;;;2.95;100.00
9474;BME280;8865;47.636;7.692;2023-01-26T09:16:24;98559.50;;;3.02;100.00
9474;BME280;8865;47.636;7.692;2023-01-26T09:18:51;98563.31;;;3.12;100.00
9474;BME280;8865;47.636;7.692;2023-01-26T09:21:18;98558.91;;;2.97;100.00
9474;BME280;8865;47.636;7.692;2023-01-26T09:23:44;98556.59;;;3.08;100.00
9474;BME280;8865;47.636;7.692;2023-01-26T09:26:10;98565.44;;;3.04;100.00
9474;BME280;8865;47.636;7.692;2023-01-26T09:28:36;98563.31;;;3.12;100.00
9474;BME280;8865;47.636;7.692;2023-01-26T09:31:04;98569.00;;;3.19;100.00
9474;BME280;8865;47.636;7.692;2023-01-26T09:33:31;98562.00;;;3.21;100.00
9474;BME280;8865;47.636;7.692;2023-01-26T09:38:30;98567.25;;;3.19;100.00
9474;BME280;8865;47.636;7.692;2023-01-26T09:43:54;98575.47;;;3.28;100.00
9474;BME280;8865;47.636;7.692;2023-01-26T09:46:28;98577.91;;;3.31;100.00
9474;BME280;8865;47.636;7.692;2023-01-26T09:49:20;98575.22;;;3.32;100.00
9474;BME280;8865;47.636;7.692;2023-01-26T09:52:09;98576.84;;;3.35;100.00
9474;BME280;8865;47.636;7.692;2023-01-26T09:54:42;98571.03;;;3.30;100.00
9474;BME280;8865;47.636;7.692;2023-01-26T09:57:13;98570.97;;;3.31;100.00
9474;BME280;8865;47.636;7.692;2023-01-26T09:59:48;98564.72;;;3.35;100.00
9474;BME280;8865;47.636;7.692;2023-01-26T10:05:03;98568.00;;;3.04;100.00
9474;BME280;8865;47.636;7.692;2023-01-26T10:07:32;98570.44;;;3.07;100.00
9474;BME280;8865;47.636;7.692;2023-01-26T10:09:58;98566.78;;;3.11;100.00
9474;BME280;8865;47.636;7.692;2023-01-26T10:12:27;98562.44;;;3.12;100.00
9474;BME280;8865;47.636;7.692;2023-01-26T10:14:57;98565.50;;;3.20;100.00
9474;BME280;8865;47.636;7.692;2023-01-26T10:20:03;98565.44;;;3.21;100.00
9474;BME280;8865;47.636;7.692;2023-01-26T10:22:44;98560.41;;;3.01;100.00
9474;BME280;8865;47.636;7.692;2023-01-26T10:25:14;98565.81;;;2.96;100.00
9474;BME280;8865;47.636;7.692;2023-01-26T10:27:42;98562.03;;;2.86;100.00
9474;BME280;8865;47.636;7.692;2023-01-26T10:30:12;98564.75;;;2.83;100.00
9474;BME280;8865;47.636;7.692;2023-01-26T10:32:41;98571.81;;;2.79;100.00
9474;BME280;8865;47.636;7.692;2023-01-26T10:35:17;98548.38;;;2.82;100.00
9474;BME280;8865;47.636;7.692;2023-01-26T10:37:43;98554.94;;;2.90;100.00
9474;BME280;8865;47.636;7.692;2023-01-26T10:40:10;98554.50;;;2.81;100.00
9474;BME280;8865;47.636;7.692;2023-01-26T10:42:37;98556.38;;;2.60;100.00
9474;BME280;8865;47.636;7.692;2023-01-26T10:45:28;98555.41;;;2.80;100.00
9474;BME280;8865;47.636;7.692;2023-01-26T10:48:17;98547.50;;;2.83;100.00
9474;BME280;8865;47.636;7.692;2023-01-26T10:50:44;98543.22;;;2.82;100.00
9474;BME280;8865;47.636;7.692;2023-01-26T10:53:27;98542.31;;;2.83;100.00
9474;BME280;8865;47.636;7.692;2023-01-26T10:58:51;98542.03;;;2.72;100.00
9474;BME280;8865;47.636;7.692;2023-01-26T11:01:19;98536.38;;;2.64;100.00
9474;BME280;8865;47.636;7.692;2023-01-26T11:04:03;98535.16;;;2.71;100.00
9474;BME280;8865;47.636;7.692;2023-01-26T11:06:29;98532.34;;;2.58;100.00
9474;BME280;8865;47.636;7.692;2023-01-26T11:11:39;98516.28;;;2.86;100.00
9474;BME280;8865;47.636;7.692;2023-01-26T11:14:15;98516.59;;;2.80;100.00
9474;BME280;8865;47.636;7.692;2023-01-26T11:22:30;98520.00;;;2.81;100.00
9474;BME280;8865;47.636;7.692;2023-01-26T11:25:14;98509.34;;;2.87;100.00
9474;BME280;8865;47.636;7.692;2023-01-26T11:30:44;98509.44;;;2.85;100.00
9474;BME280;8865;47.636;7.692;2023-01-26T11:35:53;98500.88;;;2.67;100.00
9474;BME280;8865;47.636;7.692;2023-01-26T11:38:38;98502.69;;;2.65;100.00
9474;BME280;8865;47.636;7.692;2023-01-26T12:01:12;98494.69;;;2.70;100.00
9474;BME280;8865;47.636;7.692;2023-01-26T12:03:42;98497.34;;;2.68;100.00
9474;BME280;8865;47.636;7.692;2023-01-26T12:06:36;98489.81;;;2.64;100.00
9474;BME280;8865;47.636;7.692;2023-01-26T12:17:16;98474.78;;;2.55;100.00
9474;BME280;8865;47.636;7.692;2023-01-26T12:22:48;98467.31;;;2.66;100.00
9474;BME280;8865;47.636;7.692;2023-01-26T12:25:27;98466.00;;;2.75;100.00
9474;BME280;8865;47.636;7.692;2023-01-26T12:30:47;98453.00;;;2.76;100.00
9474;BME280;8865;47.636;7.692;2023-01-26T12:33:14;98452.84;;;2.79;100.00
9474;BME280;8865;47.636;7.692;2023-01-26T12:41:21;98443.69;;;2.90;100.00
9474;BME280;8865;47.636;7.692;2023-01-26T12:44:08;98445.53;;;2.88;100.00
9474;BME280;8865;47.636;7.692;2023-01-26T12:46:40;98444.50;;;2.74;100.00
9474;BME280;8865;47.636;7.692;2023-01-26T12:50:03;98441.19;;;2.88;100.00
9474;BME280;8865;47.636;7.692;2023-01-26T12:52:07;98433.97;;;2.77;100.00
9474;BME280;8865;47.636;7.692;2023-01-26T12:54:50;98439.28;;;2.58;100.00
9474;BME280;8865;47.636;7.692;2023-01-26T12:57:23;98435.97;;;2.72;100.00
9474;BME280;8865;47.636;7.692;2023-01-26T12:59:51;98428.63;;;2.64;100.00
9474;BME280;8865;47.636;7.692;2023-01-26T13:02:29;98425.63;;;2.72;100.00
9474;BME280;8865;47.636;7.692;2023-01-26T13:04:59;98429.56;;;2.79;100.00
9474;BME280;8865;47.636;7.692;2023-01-26T13:07:34;98429.41;;;2.82;100.00
9474;BME280;8865;47.636;7.692;2023-01-26T13:15:37;98430.25;;;2.83;100.00
9474;BME280;8865;47.636;7.692;2023-01-26T13:18:05;98431.75;;;2.54;100.00
9474;BME280;8865;47.636;7.692;2023-01-26T13:32:00;98432.03;;;2.65;100.00
9474;BME280;8865;47.636;7.692;2023-01-26T13:37:09;98426.31;;;2.76;100.00
9474;BME280;8865;47.636;7.692;2023-01-26T13:39:40;98427.28;;;2.73;100.00
9474;BME280;8865;47.636;7.692;2023-01-26T13:42:21;98435.50;;;2.81;100.00
9474;BME280;8865;47.636;7.692;2023-01-26T13:44:57;98434.72;;;2.79;100.00
9474;BME280;8865;47.636;7.692;2023-01-26T13:47:31;98428.22;;;2.72;100.00
9474;BME280;8865;47.636;7.692;2023-01-26T13:49:59;98426.19;;;2.61;100.00
9474;BME280;8865;47.636;7.692;2023-01-26T13:52:27;98429.53;;;2.63;100.00
9474;BME280;8865;47.636;7.692;2023-01-26T13:54:55;98430.19;;;2.67;100.00
9474;BME280;8865;47.636;7.692;2023-01-26T13:57:27;98434.25;;;2.55;100.00
9474;BME280;8865;47.636;7.692;2023-01-26T13:59:59;98438.88;;;2.66;100.00
9474;BME280;8865;47.636;7.692;2023-01-26T14:02:31;98444.97;;;2.47;100.00
9474;BME280;8865;47.636;7.692;2023-01-26T14:04:58;98441.38;;;2.50;100.00
9474;BME280;8865;47.636;7.692;2023-01-26T14:10:00;98436.59;;;2.42;100.00
9474;BME280;8865;47.636;7.692;2023-01-26T14:12:30;98437.50;;;2.59;100.00
9474;BME280;8865;47.636;7.692;2023-01-26T14:15:00;98445.34;;;2.57;100.00
9474;BME280;8865;47.636;7.692;2023-01-26T14:17:30;98436.91;;;2.54;100.00
9474;BME280;8865;47.636;7.692;2023-01-26T14:19:57;98442.22;;;2.33;100.00
9474;BME280;8865;47.636;7.692;2023-01-26T14:22:27;98439.03;;;2.28;100.00
9474;BME280;8865;47.636;7.692;2023-01-26T14:24:54;98446.41;;;2.36;100.00
9474;BME280;8865;47.636;7.692;2023-01-26T14:27:34;98445.91;;;2.29;100.00
9474;BME280;8865;47.636;7.692;2023-01-26T14:32:47;98447.88;;;2.41;100.00
9474;BME280;8865;47.636;7.692;2023-01-26T14:35:21;98445.28;;;2.41;100.00
9474;BME280;8865;47.636;7.692;2023-01-26T14:37:49;98448.34;;;2.32;100.00
9474;BME280;8865;47.636;7.692;2023-01-26T14:40:19;98439.13;;;2.44;100.00
9474;BME280;8865;47.636;7.692;2023-01-26T14:42:47;98442.41;;;2.47;100.00
9474;BME280;8865;47.636;7.692;2023-01-26T14:45:14;98451.66;;;2.52;100.00
9474;BME280;8865;47.636;7.692;2023-01-26T14:47:41;98447.66;;;2.46;100.00
9474;BME280;8865;47.636;7.692;2023-01-26T14:50:23;98460.63;;;2.27;100.00
9474;BME280;8865;47.636;7.692;2023-01-26T14:52:52;98459.28;;;2.37;100.00
9474;BME280;8865;47.636;7.692;2023-01-26T14:55:35;98462.97;;;2.31;100.00
9474;BME280;8865;47.636;7.692;2023-01-26T14:58:02;98454.72;;;2.25;100.00
9474;BME280;8865;47.636;7.692;2023-01-26T15:00:37;98453.25;;;2.19;100.00
9474;BME280;8865;47.636;7.692;2023-01-26T15:03:11;98451.16;;;2.27;100.00
9474;BME280;8865;47.636;7.692;2023-01-26T15:05:38;98455.31;;;2.30;100.00
9474;BME280;8865;47.636;7.692;2023-01-26T15:08:19;98455.22;;;2.31;100.00
9474;BME280;8865;47.636;7.692;2023-01-26T15:10:59;98455.16;;;2.33;100.00
9474;BME280;8865;47.636;7.692;2023-01-26T15:13:46;98465.19;;;2.39;100.00